sensor_id;sensor_type;location;lat;lon;timestamp;P1;durP1;ratioP1;P2;durP2;ratioP2
7377;SDS011;3730;50.856;12.776;2024-01-30T00:01:53;2.93;;;2.43;;
7377;SDS011;3730;50.856;12.776;2024-01-30T00:04:19;3.03;;;2.30;;
7377;SDS011;3730;50.856;12.776;2024-01-30T00:06:45;3.27;;;2.33;;
7377;SDS011;3730;50.856;12.776;2024-01-30T00:09:11;2.23;;;2.03;;
7377;SDS011;3730;50.856;12.776;2024-01-30T00:11:37;2.93;;;2.40;;
7377;SDS011;3730;50.856;12.776;2024-01-30T00:14:04;4.23;;;2.97;;
7377;SDS011;3730;50.856;12.776;2024-01-30T00:16:30;2.80;;;2.53;;
7377;SDS011;3730;50.856;12.776;2024-01-30T00:18:56;3.10;;;2.30;;
7377;SDS011;3730;50.856;12.776;2024-01-30T00:21:22;3.00;;;2.63;;
7377;SDS011;3730;50.856;12.776;2024-01-30T00:23:48;4.50;;;2.83;;
7377;SDS011;3730;50.856;12.776;2024-01-30T00:26:14;2.70;;;2.50;;
7377;SDS011;3730;50.856;12.776;2024-01-30T00:28:40;5.20;;;2.67;;
7377;SDS011;3730;50.856;12.776;2024-01-30T00:31:07;2.97;;;2.40;;
7377;SDS011;3730;50.856;12.776;2024-01-30T00:33:33;2.93;;;2.60;;
7377;SDS011;3730;50.856;12.776;2024-01-30T00:35:59;3.13;;;2.70;;
7377;SDS011;3730;50.856;12.776;2024-01-30T00:38:25;3.03;;;2.40;;
7377;SDS011;3730;50.856;12.776;2024-01-30T00:40:51;2.87;;;2.40;;
7377;SDS011;3730;50.856;12.776;2024-01-30T00:43:17;2.50;;;2.30;;
7377;SDS011;3730;50.856;12.776;2024-01-30T00:45:44;4.10;;;2.10;;
7377;SDS011;3730;50.856;12.776;2024-01-30T00:48:10;3.80;;;2.40;;
7377;SDS011;3730;50.856;12.776;2024-01-30T00:50:36;2.63;;;2.30;;
7377;SDS011;3730;50.856;12.776;2024-01-30T00:53:02;2.40;;;1.90;;
7377;SDS011;3730;50.856;12.776;2024-01-30T00:55:28;2.57;;;2.07;;
7377;SDS011;3730;50.856;12.776;2024-01-30T00:57:54;2.60;;;2.10;;
7377;SDS011;3730;50.856;12.776;2024-01-30T01:00:21;2.93;;;1.97;;
7377;SDS011;3730;50.856;12.776;2024-01-30T01:02:48;3.70;;;2.00;;
7377;SDS011;3730;50.856;12.776;2024-01-30T01:05:14;3.50;;;2.33;;
7377;SDS011;3730;50.856;12.776;2024-01-30T01:07:40;4.67;;;2.63;;
7377;SDS011;3730;50.856;12.776;2024-01-30T01:10:07;2.87;;;2.10;;
7377;SDS011;3730;50.856;12.776;2024-01-30T01:12:33;2.23;;;2.03;;
7377;SDS011;3730;50.856;12.776;2024-01-30T01:14:59;2.30;;;2.10;;
7377;SDS011;3730;50.856;12.776;2024-01-30T01:17:25;2.83;;;2.00;;
7377;SDS011;3730;50.856;12.776;2024-01-30T01:19:52;2.63;;;2.00;;
7377;SDS011;3730;50.856;12.776;2024-01-30T01:22:18;2.40;;;1.80;;
7377;SDS011;3730;50.856;12.776;2024-01-30T01:24:44;2.67;;;2.00;;
7377;SDS011;3730;50.856;12.776;2024-01-30T01:27:10;4.50;;;2.23;;
7377;SDS011;3730;50.856;12.776;2024-01-30T01:29:36;5.57;;;2.10;;
7377;SDS011;3730;50.856;12.776;2024-01-30T01:32:02;3.63;;;2.10;;
7377;SDS011;3730;50.856;12.776;2024-01-30T01:34:28;3.17;;;2.20;;
7377;SDS011;3730;50.856;12.776;2024-01-30T01:36:54;2.10;;;1.73;;
7377;SDS011;3730;50.856;12.776;2024-01-30T01:39:20;3.67;;;2.30;;
7377;SDS011;3730;50.856;12.776;2024-01-30T01:41:46;2.47;;;2.20;;
7377;SDS011;3730;50.856;12.776;2024-01-30T01:44:12;2.20;;;2.00;;
7377;SDS011;3730;50.856;12.776;2024-01-30T01:46:38;2.53;;;2.30;;
7377;SDS011;3730;50.856;12.776;2024-01-30T01:49:04;3.03;;;2.03;;
7377;SDS011;3730;50.856;12.776;2024-01-30T01:51:31;2.43;;;1.97;;
7377;SDS011;3730;50.856;12.776;2024-01-30T01:53:59;3.17;;;1.90;;
7377;SDS011;3730;50.856;12.776;2024-01-30T01:56:26;2.13;;;1.73;;
7377;SDS011;3730;50.856;12.776;2024-01-30T01:58:54;2.60;;;2.00;;
7377;SDS011;3730;50.856;12.776;2024-01-30T02:01:20;2.70;;;2.20;;
7377;SDS011;3730;50.856;12.776;2024-01-30T02:03:47;2.70;;;1.93;;
7377;SDS011;3730;50.856;12.776;2024-01-30T02:06:13;3.50;;;2.40;;
7377;SDS011;3730;50.856;12.776;2024-01-30T02:08:40;3.30;;;2.03;;
7377;SDS011;3730;50.856;12.776;2024-01-30T02:11:07;2.57;;;2.20;;
7377;SDS011;3730;50.856;12.776;2024-01-30T02:13:33;2.33;;;1.80;;
7377;SDS011;3730;50.856;12.776;2024-01-30T02:15:59;3.20;;;1.97;;
7377;SDS011;3730;50.856;12.776;2024-01-30T02:18:26;2.90;;;2.20;;
7377;SDS011;3730;50.856;12.776;2024-01-30T02:20:53;1.93;;;1.73;;
7377;SDS011;3730;50.856;12.776;2024-01-30T02:23:19;2.90;;;1.93;;
7377;SDS011;3730;50.856;12.776;2024-01-30T02:25:45;1.87;;;1.70;;
7377;SDS011;3730;50.856;12.776;2024-01-30T02:28:12;2.53;;;2.20;;
7377;SDS011;3730;50.856;12.776;2024-01-30T02:30:39;2.07;;;1.87;;
7377;SDS011;3730;50.856;12.776;2024-01-30T02:33:05;1.73;;;1.63;;
7377;SDS011;3730;50.856;12.776;2024-01-30T02:35:31;3.43;;;1.80;;
7377;SDS011;3730;50.856;12.776;2024-01-30T02:37:59;2.13;;;1.93;;
7377;SDS011;3730;50.856;12.776;2024-01-30T02:40:25;2.07;;;1.87;;
7377;SDS011;3730;50.856;12.776;2024-01-30T02:42:51;1.90;;;1.80;;
7377;SDS011;3730;50.856;12.776;2024-01-30T02:45:17;4.33;;;2.33;;
7377;SDS011;3730;50.856;12.776;2024-01-30T02:47:43;2.37;;;1.90;;
7377;SDS011;3730;50.856;12.776;2024-01-30T02:50:09;2.37;;;2.00;;
7377;SDS011;3730;50.856;12.776;2024-01-30T02:52:35;2.63;;;1.93;;
7377;SDS011;3730;50.856;12.776;2024-01-30T02:55:01;3.57;;;2.03;;
7377;SDS011;3730;50.856;12.776;2024-01-30T02:57:28;2.33;;;2.00;;
7377;SDS011;3730;50.856;12.776;2024-01-30T02:59:54;2.70;;;1.83;;
7377;SDS011;3730;50.856;12.776;2024-01-30T03:02:20;2.17;;;1.97;;
7377;SDS011;3730;50.856;12.776;2024-01-30T03:04:46;2.40;;;1.90;;
7377;SDS011;3730;50.856;12.776;2024-01-30T03:07:12;3.33;;;2.33;;
7377;SDS011;3730;50.856;12.776;2024-01-30T03:09:38;2.53;;;2.20;;
7377;SDS011;3730;50.856;12.776;2024-01-30T03:12:04;1.80;;;1.70;;
7377;SDS011;3730;50.856;12.776;2024-01-30T03:14:31;2.10;;;1.90;;
7377;SDS011;3730;50.856;12.776;2024-01-30T03:16:57;1.90;;;1.70;;
7377;SDS011;3730;50.856;12.776;2024-01-30T03:19:23;2.93;;;1.77;;
7377;SDS011;3730;50.856;12.776;2024-01-30T03:21:49;2.03;;;1.60;;
7377;SDS011;3730;50.856;12.776;2024-01-30T03:24:16;2.17;;;1.83;;
7377;SDS011;3730;50.856;12.776;2024-01-30T03:26:42;3.30;;;1.60;;
7377;SDS011;3730;50.856;12.776;2024-01-30T03:29:08;3.27;;;2.10;;
7377;SDS011;3730;50.856;12.776;2024-01-30T03:31:34;2.47;;;2.00;;
7377;SDS011;3730;50.856;12.776;2024-01-30T03:34:00;2.00;;;1.73;;
7377;SDS011;3730;50.856;12.776;2024-01-30T03:36:26;2.07;;;1.80;;
7377;SDS011;3730;50.856;12.776;2024-01-30T03:38:52;1.70;;;1.60;;
7377;SDS011;3730;50.856;12.776;2024-01-30T03:41:18;2.97;;;1.80;;
7377;SDS011;3730;50.856;12.776;2024-01-30T03:43:45;3.70;;;1.67;;
7377;SDS011;3730;50.856;12.776;2024-01-30T03:46:14;2.17;;;1.83;;
7377;SDS011;3730;50.856;12.776;2024-01-30T03:48:40;1.90;;;1.73;;
7377;SDS011;3730;50.856;12.776;2024-01-30T03:51:06;3.10;;;1.63;;
7377;SDS011;3730;50.856;12.776;2024-01-30T03:53:32;1.87;;;1.60;;
7377;SDS011;3730;50.856;12.776;2024-01-30T03:55:58;2.30;;;1.60;;
7377;SDS011;3730;50.856;12.776;2024-01-30T03:58:24;1.57;;;1.40;;
7377;SDS011;3730;50.856;12.776;2024-01-30T04:00:50;3.03;;;1.40;;
7377;SDS011;3730;50.856;12.776;2024-01-30T04:03:16;1.90;;;1.37;;
7377;SDS011;3730;50.856;12.776;2024-01-30T04:05:42;22.37;;;6.37;;
7377;SDS011;3730;50.856;12.776;2024-01-30T04:08:09;2.80;;;1.67;;
7377;SDS011;3730;50.856;12.776;2024-01-30T04:10:35;2.60;;;1.90;;
7377;SDS011;3730;50.856;12.776;2024-01-30T04:13:01;2.60;;;1.53;;
7377;SDS011;3730;50.856;12.776;2024-01-30T04:15:27;2.10;;;1.90;;
7377;SDS011;3730;50.856;12.776;2024-01-30T04:17:56;2.10;;;1.80;;
7377;SDS011;3730;50.856;12.776;2024-01-30T04:20:23;1.87;;;1.40;;
7377;SDS011;3730;50.856;12.776;2024-01-30T04:22:49;5.13;;;2.00;;
7377;SDS011;3730;50.856;12.776;2024-01-30T04:25:15;2.50;;;1.60;;
7377;SDS011;3730;50.856;12.776;2024-01-30T04:27:41;3.73;;;1.87;;
7377;SDS011;3730;50.856;12.776;2024-01-30T04:30:07;2.03;;;1.60;;
7377;SDS011;3730;50.856;12.776;2024-01-30T04:32:33;1.70;;;1.60;;
7377;SDS011;3730;50.856;12.776;2024-01-30T04:35:00;2.70;;;1.60;;
7377;SDS011;3730;50.856;12.776;2024-01-30T04:37:26;4.03;;;1.90;;
7377;SDS011;3730;50.856;12.776;2024-01-30T04:39:52;2.00;;;1.80;;
7377;SDS011;3730;50.856;12.776;2024-01-30T04:42:19;2.30;;;2.10;;
7377;SDS011;3730;50.856;12.776;2024-01-30T04:44:45;2.07;;;1.90;;
7377;SDS011;3730;50.856;12.776;2024-01-30T04:47:11;2.20;;;1.80;;
7377;SDS011;3730;50.856;12.776;2024-01-30T04:49:38;3.07;;;1.80;;
7377;SDS011;3730;50.856;12.776;2024-01-30T04:52:05;2.00;;;1.80;;
7377;SDS011;3730;50.856;12.776;2024-01-30T04:54:31;2.57;;;1.90;;
7377;SDS011;3730;50.856;12.776;2024-01-30T04:56:57;1.70;;;1.60;;
7377;SDS011;3730;50.856;12.776;2024-01-30T04:59:23;2.07;;;1.70;;
7377;SDS011;3730;50.856;12.776;2024-01-30T05:01:49;2.07;;;1.70;;
7377;SDS011;3730;50.856;12.776;2024-01-30T05:04:15;3.53;;;2.00;;
7377;SDS011;3730;50.856;12.776;2024-01-30T05:06:41;2.23;;;1.70;;
7377;SDS011;3730;50.856;12.776;2024-01-30T05:09:07;2.67;;;2.00;;
7377;SDS011;3730;50.856;12.776;2024-01-30T05:11:40;3.10;;;1.90;;
7377;SDS011;3730;50.856;12.776;2024-01-30T05:14:07;3.33;;;2.20;;
7377;SDS011;3730;50.856;12.776;2024-01-30T05:16:33;2.37;;;2.00;;
7377;SDS011;3730;50.856;12.776;2024-01-30T05:19:00;2.50;;;2.20;;
7377;SDS011;3730;50.856;12.776;2024-01-30T05:21:26;3.40;;;2.00;;
7377;SDS011;3730;50.856;12.776;2024-01-30T05:23:52;2.60;;;1.80;;
7377;SDS011;3730;50.856;12.776;2024-01-30T05:26:18;1.87;;;1.70;;
7377;SDS011;3730;50.856;12.776;2024-01-30T05:28:44;3.40;;;2.27;;
7377;SDS011;3730;50.856;12.776;2024-01-30T05:31:10;2.07;;;1.80;;
7377;SDS011;3730;50.856;12.776;2024-01-30T05:33:36;2.37;;;2.13;;
7377;SDS011;3730;50.856;12.776;2024-01-30T05:36:02;4.40;;;2.30;;
7377;SDS011;3730;50.856;12.776;2024-01-30T05:38:28;3.07;;;2.70;;
7377;SDS011;3730;50.856;12.776;2024-01-30T05:40:55;3.17;;;1.90;;
7377;SDS011;3730;50.856;12.776;2024-01-30T05:43:23;2.80;;;2.13;;
7377;SDS011;3730;50.856;12.776;2024-01-30T05:45:49;1.83;;;1.73;;
7377;SDS011;3730;50.856;12.776;2024-01-30T05:48:15;1.93;;;1.80;;
7377;SDS011;3730;50.856;12.776;2024-01-30T05:50:41;2.67;;;1.60;;
7377;SDS011;3730;50.856;12.776;2024-01-30T05:53:07;3.00;;;1.70;;
7377;SDS011;3730;50.856;12.776;2024-01-30T05:55:33;1.87;;;1.40;;
7377;SDS011;3730;50.856;12.776;2024-01-30T05:57:59;3.03;;;1.77;;
7377;SDS011;3730;50.856;12.776;2024-01-30T06:00:25;1.60;;;1.50;;
7377;SDS011;3730;50.856;12.776;2024-01-30T06:02:51;1.90;;;1.60;;
7377;SDS011;3730;50.856;12.776;2024-01-30T06:05:17;2.83;;;2.07;;
7377;SDS011;3730;50.856;12.776;2024-01-30T06:07:43;2.30;;;1.90;;
7377;SDS011;3730;50.856;12.776;2024-01-30T06:10:09;3.90;;;1.70;;
7377;SDS011;3730;50.856;12.776;2024-01-30T06:12:35;2.00;;;1.80;;
7377;SDS011;3730;50.856;12.776;2024-01-30T06:15:01;2.17;;;1.97;;
7377;SDS011;3730;50.856;12.776;2024-01-30T06:17:28;4.60;;;3.53;;
7377;SDS011;3730;50.856;12.776;2024-01-30T06:19:54;2.53;;;2.33;;
7377;SDS011;3730;50.856;12.776;2024-01-30T06:22:20;2.70;;;2.03;;
7377;SDS011;3730;50.856;12.776;2024-01-30T06:24:46;2.97;;;2.30;;
7377;SDS011;3730;50.856;12.776;2024-01-30T06:27:15;4.53;;;2.27;;
7377;SDS011;3730;50.856;12.776;2024-01-30T06:29:42;5.70;;;3.20;;
7377;SDS011;3730;50.856;12.776;2024-01-30T06:32:09;5.03;;;3.80;;
7377;SDS011;3730;50.856;12.776;2024-01-30T06:34:35;4.73;;;3.30;;
7377;SDS011;3730;50.856;12.776;2024-01-30T06:37:01;3.33;;;2.13;;
7377;SDS011;3730;50.856;12.776;2024-01-30T06:39:27;3.20;;;1.90;;
7377;SDS011;3730;50.856;12.776;2024-01-30T06:41:53;1.80;;;1.60;;
7377;SDS011;3730;50.856;12.776;2024-01-30T06:44:19;2.20;;;1.50;;
7377;SDS011;3730;50.856;12.776;2024-01-30T06:46:45;1.83;;;1.70;;
7377;SDS011;3730;50.856;12.776;2024-01-30T06:49:11;3.80;;;1.60;;
7377;SDS011;3730;50.856;12.776;2024-01-30T06:51:37;1.97;;;1.33;;
7377;SDS011;3730;50.856;12.776;2024-01-30T06:54:03;5.47;;;2.30;;
7377;SDS011;3730;50.856;12.776;2024-01-30T06:56:29;4.80;;;3.27;;
7377;SDS011;3730;50.856;12.776;2024-01-30T06:58:55;3.17;;;2.87;;
7377;SDS011;3730;50.856;12.776;2024-01-30T07:01:27;3.63;;;2.63;;
7377;SDS011;3730;50.856;12.776;2024-01-30T07:03:54;3.83;;;2.00;;
7377;SDS011;3730;50.856;12.776;2024-01-30T07:06:20;2.40;;;1.80;;
7377;SDS011;3730;50.856;12.776;2024-01-30T07:08:47;2.57;;;1.53;;
7377;SDS011;3730;50.856;12.776;2024-01-30T07:11:22;12.17;;;2.20;;
7377;SDS011;3730;50.856;12.776;2024-01-30T07:13:49;4.60;;;1.97;;
7377;SDS011;3730;50.856;12.776;2024-01-30T07:16:15;2.93;;;2.00;;
7377;SDS011;3730;50.856;12.776;2024-01-30T07:18:41;2.63;;;1.77;;
7377;SDS011;3730;50.856;12.776;2024-01-30T07:21:07;2.00;;;1.80;;
7377;SDS011;3730;50.856;12.776;2024-01-30T07:23:33;1.57;;;1.10;;
7377;SDS011;3730;50.856;12.776;2024-01-30T07:26:00;1.67;;;1.50;;
7377;SDS011;3730;50.856;12.776;2024-01-30T07:28:26;1.93;;;1.80;;
7377;SDS011;3730;50.856;12.776;2024-01-30T07:30:52;2.37;;;2.10;;
7377;SDS011;3730;50.856;12.776;2024-01-30T07:33:18;3.17;;;1.90;;
7377;SDS011;3730;50.856;12.776;2024-01-30T07:35:45;1.87;;;1.77;;
7377;SDS011;3730;50.856;12.776;2024-01-30T07:38:11;2.00;;;1.80;;
7377;SDS011;3730;50.856;12.776;2024-01-30T07:40:37;2.07;;;1.87;;
7377;SDS011;3730;50.856;12.776;2024-01-30T07:43:03;3.73;;;2.00;;
7377;SDS011;3730;50.856;12.776;2024-01-30T07:45:29;2.57;;;1.73;;
7377;SDS011;3730;50.856;12.776;2024-01-30T07:47:58;2.40;;;2.00;;
7377;SDS011;3730;50.856;12.776;2024-01-30T07:50:27;2.87;;;1.90;;
7377;SDS011;3730;50.856;12.776;2024-01-30T07:52:53;3.20;;;2.10;;
7377;SDS011;3730;50.856;12.776;2024-01-30T07:55:22;2.37;;;1.80;;
7377;SDS011;3730;50.856;12.776;2024-01-30T07:57:56;1.53;;;1.43;;
7377;SDS011;3730;50.856;12.776;2024-01-30T08:00:23;1.60;;;1.50;;
7377;SDS011;3730;50.856;12.776;2024-01-30T08:02:49;2.47;;;1.80;;
7377;SDS011;3730;50.856;12.776;2024-01-30T08:05:15;3.13;;;1.80;;
7377;SDS011;3730;50.856;12.776;2024-01-30T08:07:41;4.10;;;1.73;;
7377;SDS011;3730;50.856;12.776;2024-01-30T08:10:08;7.83;;;2.03;;
7377;SDS011;3730;50.856;12.776;2024-01-30T08:12:34;6.10;;;3.70;;
7377;SDS011;3730;50.856;12.776;2024-01-30T08:15:00;2.80;;;2.17;;
7377;SDS011;3730;50.856;12.776;2024-01-30T08:17:26;2.13;;;1.93;;
7377;SDS011;3730;50.856;12.776;2024-01-30T08:19:52;2.67;;;2.00;;
7377;SDS011;3730;50.856;12.776;2024-01-30T08:22:18;2.50;;;1.73;;
7377;SDS011;3730;50.856;12.776;2024-01-30T08:24:44;2.50;;;1.93;;
7377;SDS011;3730;50.856;12.776;2024-01-30T08:27:10;4.10;;;2.23;;
7377;SDS011;3730;50.856;12.776;2024-01-30T08:29:37;2.63;;;2.13;;
7377;SDS011;3730;50.856;12.776;2024-01-30T08:32:04;2.10;;;1.90;;
7377;SDS011;3730;50.856;12.776;2024-01-30T08:34:30;3.20;;;2.30;;
7377;SDS011;3730;50.856;12.776;2024-01-30T08:36:56;2.50;;;1.90;;
7377;SDS011;3730;50.856;12.776;2024-01-30T08:39:22;2.10;;;1.73;;
7377;SDS011;3730;50.856;12.776;2024-01-30T08:41:48;2.67;;;2.00;;
7377;SDS011;3730;50.856;12.776;2024-01-30T08:44:14;3.67;;;2.07;;
7377;SDS011;3730;50.856;12.776;2024-01-30T08:46:40;2.43;;;2.23;;
7377;SDS011;3730;50.856;12.776;2024-01-30T08:49:07;3.80;;;2.03;;
7377;SDS011;3730;50.856;12.776;2024-01-30T08:51:33;2.43;;;2.10;;
7377;SDS011;3730;50.856;12.776;2024-01-30T08:53:59;3.40;;;2.23;;
7377;SDS011;3730;50.856;12.776;2024-01-30T08:56:25;3.70;;;2.10;;
7377;SDS011;3730;50.856;12.776;2024-01-30T08:58:51;3.27;;;2.37;;
7377;SDS011;3730;50.856;12.776;2024-01-30T09:01:17;2.37;;;2.00;;
7377;SDS011;3730;50.856;12.776;2024-01-30T09:03:43;3.27;;;2.20;;
7377;SDS011;3730;50.856;12.776;2024-01-30T09:06:11;2.90;;;2.30;;
7377;SDS011;3730;50.856;12.776;2024-01-30T09:08:37;4.07;;;3.07;;
7377;SDS011;3730;50.856;12.776;2024-01-30T09:11:09;3.20;;;2.73;;
7377;SDS011;3730;50.856;12.776;2024-01-30T09:13:36;3.00;;;2.33;;
7377;SDS011;3730;50.856;12.776;2024-01-30T09:16:02;2.77;;;2.03;;
7377;SDS011;3730;50.856;12.776;2024-01-30T09:18:28;2.47;;;2.27;;
7377;SDS011;3730;50.856;12.776;2024-01-30T09:20:54;2.90;;;2.60;;
7377;SDS011;3730;50.856;12.776;2024-01-30T09:23:20;3.17;;;2.40;;
7377;SDS011;3730;50.856;12.776;2024-01-30T09:25:47;2.90;;;2.30;;
7377;SDS011;3730;50.856;12.776;2024-01-30T09:28:13;2.50;;;2.23;;
7377;SDS011;3730;50.856;12.776;2024-01-30T09:30:39;3.07;;;2.40;;
7377;SDS011;3730;50.856;12.776;2024-01-30T09:33:05;3.83;;;2.60;;
7377;SDS011;3730;50.856;12.776;2024-01-30T09:35:31;4.77;;;2.60;;
7377;SDS011;3730;50.856;12.776;2024-01-30T09:37:58;3.17;;;2.70;;
7377;SDS011;3730;50.856;12.776;2024-01-30T09:40:24;13.53;;;3.20;;
7377;SDS011;3730;50.856;12.776;2024-01-30T09:42:50;4.07;;;2.70;;
7377;SDS011;3730;50.856;12.776;2024-01-30T09:45:23;3.10;;;2.67;;
7377;SDS011;3730;50.856;12.776;2024-01-30T09:47:49;3.60;;;2.63;;
7377;SDS011;3730;50.856;12.776;2024-01-30T09:50:15;4.20;;;2.90;;
7377;SDS011;3730;50.856;12.776;2024-01-30T09:52:45;3.23;;;2.43;;
7377;SDS011;3730;50.856;12.776;2024-01-30T09:55:11;3.93;;;2.70;;
7377;SDS011;3730;50.856;12.776;2024-01-30T09:57:37;5.10;;;3.07;;
7377;SDS011;3730;50.856;12.776;2024-01-30T10:00:03;3.20;;;2.67;;
7377;SDS011;3730;50.856;12.776;2024-01-30T10:02:32;7.70;;;3.10;;
7377;SDS011;3730;50.856;12.776;2024-01-30T10:04:58;6.67;;;3.00;;
7377;SDS011;3730;50.856;12.776;2024-01-30T10:07:25;6.20;;;3.30;;
7377;SDS011;3730;50.856;12.776;2024-01-30T10:09:50;4.77;;;3.40;;
7377;SDS011;3730;50.856;12.776;2024-01-30T10:12:18;3.47;;;3.00;;
7377;SDS011;3730;50.856;12.776;2024-01-30T10:14:44;3.50;;;3.17;;
7377;SDS011;3730;50.856;12.776;2024-01-30T10:17:09;4.53;;;3.20;;
7377;SDS011;3730;50.856;12.776;2024-01-30T10:19:37;3.67;;;3.00;;
7377;SDS011;3730;50.856;12.776;2024-01-30T10:22:03;6.10;;;4.30;;
7377;SDS011;3730;50.856;12.776;2024-01-30T10:24:29;5.27;;;3.47;;
7377;SDS011;3730;50.856;12.776;2024-01-30T10:26:55;4.80;;;3.60;;
7377;SDS011;3730;50.856;12.776;2024-01-30T10:29:21;4.80;;;3.30;;
7377;SDS011;3730;50.856;12.776;2024-01-30T10:32:05;3.37;;;3.00;;
7377;SDS011;3730;50.856;12.776;2024-01-30T10:34:31;4.13;;;3.00;;
7377;SDS011;3730;50.856;12.776;2024-01-30T10:37:08;7.27;;;3.40;;
7377;SDS011;3730;50.856;12.776;2024-01-30T10:39:45;4.90;;;3.37;;
7377;SDS011;3730;50.856;12.776;2024-01-30T10:42:12;3.60;;;3.07;;
7377;SDS011;3730;50.856;12.776;2024-01-30T10:45:23;4.73;;;3.50;;
7377;SDS011;3730;50.856;12.776;2024-01-30T10:47:28;4.00;;;3.10;;
7377;SDS011;3730;50.856;12.776;2024-01-30T10:49:55;6.13;;;3.50;;
7377;SDS011;3730;50.856;12.776;2024-01-30T10:52:22;8.27;;;3.43;;
7377;SDS011;3730;50.856;12.776;2024-01-30T10:54:51;6.97;;;3.43;;
7377;SDS011;3730;50.856;12.776;2024-01-30T10:57:17;11.67;;;3.90;;
7377;SDS011;3730;50.856;12.776;2024-01-30T10:59:43;4.33;;;3.10;;
7377;SDS011;3730;50.856;12.776;2024-01-30T11:02:10;6.20;;;3.47;;
7377;SDS011;3730;50.856;12.776;2024-01-30T11:04:42;3.40;;;3.03;;
7377;SDS011;3730;50.856;12.776;2024-01-30T11:07:17;4.47;;;3.47;;
7377;SDS011;3730;50.856;12.776;2024-01-30T11:09:53;4.67;;;3.33;;
7377;SDS011;3730;50.856;12.776;2024-01-30T11:12:32;4.70;;;3.00;;
7377;SDS011;3730;50.856;12.776;2024-01-30T11:15:03;5.17;;;3.67;;
7377;SDS011;3730;50.856;12.776;2024-01-30T11:18:07;4.10;;;3.30;;
7377;SDS011;3730;50.856;12.776;2024-01-30T11:20:29;4.60;;;3.53;;
7377;SDS011;3730;50.856;12.776;2024-01-30T11:23:01;4.40;;;3.50;;
7377;SDS011;3730;50.856;12.776;2024-01-30T11:25:31;4.97;;;3.67;;
7377;SDS011;3730;50.856;12.776;2024-01-30T11:27:57;5.17;;;3.37;;
7377;SDS011;3730;50.856;12.776;2024-01-30T11:30:26;5.90;;;3.70;;
7377;SDS011;3730;50.856;12.776;2024-01-30T11:35:33;6.10;;;4.03;;
7377;SDS011;3730;50.856;12.776;2024-01-30T11:38:04;6.30;;;4.30;;
7377;SDS011;3730;50.856;12.776;2024-01-30T11:40:31;6.17;;;4.00;;
7377;SDS011;3730;50.856;12.776;2024-01-30T11:42:58;5.00;;;3.83;;
7377;SDS011;3730;50.856;12.776;2024-01-30T11:45:26;6.63;;;3.83;;
7377;SDS011;3730;50.856;12.776;2024-01-30T11:47:55;7.30;;;3.83;;
7377;SDS011;3730;50.856;12.776;2024-01-30T11:50:22;7.97;;;4.30;;
7377;SDS011;3730;50.856;12.776;2024-01-30T11:52:47;8.40;;;3.80;;
7377;SDS011;3730;50.856;12.776;2024-01-30T11:55:14;8.47;;;3.93;;
7377;SDS011;3730;50.856;12.776;2024-01-30T11:57:40;7.67;;;4.07;;
7377;SDS011;3730;50.856;12.776;2024-01-30T12:00:06;7.23;;;4.47;;
7377;SDS011;3730;50.856;12.776;2024-01-30T12:02:39;8.53;;;4.10;;
7377;SDS011;3730;50.856;12.776;2024-01-30T12:05:05;6.27;;;4.77;;
7377;SDS011;3730;50.856;12.776;2024-01-30T12:07:32;6.77;;;3.87;;
7377;SDS011;3730;50.856;12.776;2024-01-30T12:09:58;6.20;;;3.93;;
7377;SDS011;3730;50.856;12.776;2024-01-30T12:12:24;7.93;;;5.17;;
7377;SDS011;3730;50.856;12.776;2024-01-30T12:14:51;5.47;;;4.27;;
7377;SDS011;3730;50.856;12.776;2024-01-30T12:17:30;10.83;;;4.40;;
7377;SDS011;3730;50.856;12.776;2024-01-30T12:22:29;7.30;;;4.00;;
7377;SDS011;3730;50.856;12.776;2024-01-30T12:24:55;6.30;;;4.10;;
7377;SDS011;3730;50.856;12.776;2024-01-30T12:27:21;6.87;;;3.87;;
7377;SDS011;3730;50.856;12.776;2024-01-30T12:29:47;6.37;;;3.87;;
7377;SDS011;3730;50.856;12.776;2024-01-30T12:32:15;6.20;;;4.00;;
7377;SDS011;3730;50.856;12.776;2024-01-30T12:34:42;5.70;;;3.93;;
7377;SDS011;3730;50.856;12.776;2024-01-30T12:37:07;5.30;;;4.10;;
7377;SDS011;3730;50.856;12.776;2024-01-30T12:39:34;7.10;;;4.00;;
7377;SDS011;3730;50.856;12.776;2024-01-30T12:42:00;5.67;;;3.87;;
7377;SDS011;3730;50.856;12.776;2024-01-30T12:44:26;5.80;;;4.17;;
7377;SDS011;3730;50.856;12.776;2024-01-30T12:46:52;4.97;;;4.00;;
7377;SDS011;3730;50.856;12.776;2024-01-30T12:49:19;4.27;;;3.60;;
7377;SDS011;3730;50.856;12.776;2024-01-30T12:51:46;6.20;;;3.90;;
7377;SDS011;3730;50.856;12.776;2024-01-30T12:54:12;6.33;;;4.13;;
7377;SDS011;3730;50.856;12.776;2024-01-30T12:56:38;4.10;;;3.53;;
7377;SDS011;3730;50.856;12.776;2024-01-30T12:59:03;4.73;;;4.00;;
7377;SDS011;3730;50.856;12.776;2024-01-30T13:01:29;7.60;;;3.57;;
7377;SDS011;3730;50.856;12.776;2024-01-30T13:03:55;6.57;;;4.17;;
7377;SDS011;3730;50.856;12.776;2024-01-30T13:06:23;6.40;;;4.20;;
7377;SDS011;3730;50.856;12.776;2024-01-30T13:08:49;5.17;;;3.87;;
7377;SDS011;3730;50.856;12.776;2024-01-30T13:11:15;5.97;;;3.93;;
7377;SDS011;3730;50.856;12.776;2024-01-30T13:13:40;6.33;;;4.10;;
7377;SDS011;3730;50.856;12.776;2024-01-30T13:16:06;5.43;;;3.73;;
7377;SDS011;3730;50.856;12.776;2024-01-30T13:18:32;5.43;;;3.67;;
7377;SDS011;3730;50.856;12.776;2024-01-30T13:20:58;8.10;;;4.20;;
7377;SDS011;3730;50.856;12.776;2024-01-30T13:23:24;5.67;;;4.00;;
7377;SDS011;3730;50.856;12.776;2024-01-30T13:25:49;6.97;;;3.80;;
7377;SDS011;3730;50.856;12.776;2024-01-30T13:28:15;7.70;;;3.80;;
7377;SDS011;3730;50.856;12.776;2024-01-30T13:30:41;5.60;;;3.60;;
7377;SDS011;3730;50.856;12.776;2024-01-30T13:33:07;5.17;;;3.43;;
7377;SDS011;3730;50.856;12.776;2024-01-30T13:35:33;6.30;;;4.13;;
7377;SDS011;3730;50.856;12.776;2024-01-30T13:37:59;5.70;;;3.80;;
7377;SDS011;3730;50.856;12.776;2024-01-30T13:40:25;4.53;;;3.57;;
7377;SDS011;3730;50.856;12.776;2024-01-30T13:42:51;5.37;;;4.00;;
7377;SDS011;3730;50.856;12.776;2024-01-30T13:45:17;5.00;;;3.47;;
7377;SDS011;3730;50.856;12.776;2024-01-30T13:47:42;6.00;;;3.70;;
7377;SDS011;3730;50.856;12.776;2024-01-30T13:50:08;5.33;;;3.60;;
7377;SDS011;3730;50.856;12.776;2024-01-30T13:52:35;7.63;;;3.90;;
7377;SDS011;3730;50.856;12.776;2024-01-30T13:55:01;5.70;;;4.00;;
7377;SDS011;3730;50.856;12.776;2024-01-30T13:57:27;6.00;;;3.63;;
7377;SDS011;3730;50.856;12.776;2024-01-30T13:59:52;4.80;;;3.60;;
7377;SDS011;3730;50.856;12.776;2024-01-30T14:02:18;4.57;;;3.80;;
7377;SDS011;3730;50.856;12.776;2024-01-30T14:04:44;4.37;;;3.50;;
7377;SDS011;3730;50.856;12.776;2024-01-30T14:07:09;7.23;;;3.67;;
7377;SDS011;3730;50.856;12.776;2024-01-30T14:09:35;4.07;;;3.20;;
7377;SDS011;3730;50.856;12.776;2024-01-30T14:12:01;6.80;;;3.53;;
7377;SDS011;3730;50.856;12.776;2024-01-30T14:14:27;4.80;;;3.63;;
7377;SDS011;3730;50.856;12.776;2024-01-30T14:16:53;3.87;;;3.20;;
7377;SDS011;3730;50.856;12.776;2024-01-30T14:19:18;4.20;;;3.23;;
7377;SDS011;3730;50.856;12.776;2024-01-30T14:21:44;4.93;;;3.67;;
7377;SDS011;3730;50.856;12.776;2024-01-30T14:24:10;5.83;;;3.70;;
7377;SDS011;3730;50.856;12.776;2024-01-30T14:26:36;5.67;;;3.90;;
7377;SDS011;3730;50.856;12.776;2024-01-30T14:29:02;8.70;;;4.23;;
7377;SDS011;3730;50.856;12.776;2024-01-30T14:31:28;7.53;;;3.60;;
7377;SDS011;3730;50.856;12.776;2024-01-30T14:33:54;6.20;;;3.70;;
7377;SDS011;3730;50.856;12.776;2024-01-30T14:36:20;9.10;;;4.57;;
7377;SDS011;3730;50.856;12.776;2024-01-30T14:38:46;7.07;;;3.73;;
7377;SDS011;3730;50.856;12.776;2024-01-30T14:41:11;7.03;;;3.97;;
7377;SDS011;3730;50.856;12.776;2024-01-30T14:43:37;7.20;;;3.90;;
7377;SDS011;3730;50.856;12.776;2024-01-30T14:46:03;5.27;;;3.47;;
7377;SDS011;3730;50.856;12.776;2024-01-30T14:48:31;6.40;;;4.27;;
7377;SDS011;3730;50.856;12.776;2024-01-30T14:50:57;10.47;;;4.10;;
7377;SDS011;3730;50.856;12.776;2024-01-30T14:53:23;4.40;;;3.60;;
7377;SDS011;3730;50.856;12.776;2024-01-30T14:55:49;6.37;;;4.20;;
7377;SDS011;3730;50.856;12.776;2024-01-30T14:58:14;7.13;;;4.20;;
7377;SDS011;3730;50.856;12.776;2024-01-30T15:00:40;8.33;;;4.10;;
7377;SDS011;3730;50.856;12.776;2024-01-30T15:03:08;6.20;;;3.90;;